sensor_id;sensor_type;location;lat;lon;timestamp;pressure;altitude;pressure_sealevel;temperature;humidity
54022;BME280;39936;51.058;17.220;2023-02-23T00:05:03;101811.62;;;0.52;100.00
54022;BME280;39936;51.058;17.220;2023-02-23T00:08:54;101809.30;;;0.49;100.00
54022;BME280;39936;51.058;17.220;2023-02-23T00:13:11;101805.88;;;0.45;100.00
54022;BME280;39936;51.058;17.220;2023-02-23T00:17:00;101803.92;;;0.41;100.00
54022;BME280;39936;51.058;17.220;2023-02-23T00:20:19;101802.16;;;0.38;100.00
54022;BME280;39936;51.058;17.220;2023-02-23T00:27:58;101798.63;;;0.28;100.00
54022;BME280;39936;51.058;17.220;2023-02-23T00:31:24;101795.23;;;0.22;100.00
54022;BME280;39936;51.058;17.220;2023-02-23T00:34:51;101800.34;;;0.19;100.00
54022;BME280;39936;51.058;17.220;2023-02-23T00:38:12;101775.54;;;-0.03;100.00
54022;BME280;39936;51.058;17.220;2023-02-23T00:42:08;101799.38;;;0.09;100.00
54022;BME280;39936;51.058;17.220;2023-02-23T00:46:18;101794.17;;;0.05;100.00
54022;BME280;39936;51.058;17.220;2023-02-23T00:49:43;101795.78;;;0.03;100.00
54022;BME280;39936;51.058;17.220;2023-02-23T00:53:18;101795.16;;;-0.01;100.00
54022;BME280;39936;51.058;17.220;2023-02-23T00:57:00;101797.80;;;-0.04;100.00
54022;BME280;39936;51.058;17.220;2023-02-23T01:00:39;101793.48;;;-0.06;100.00
54022;BME280;39936;51.058;17.220;2023-02-23T01:04:09;101795.76;;;-0.10;100.00
54022;BME280;39936;51.058;17.220;2023-02-23T01:08:39;101789.13;;;-0.14;100.00
54022;BME280;39936;51.058;17.220;2023-02-23T01:12:15;101783.61;;;-0.16;100.00
54022;BME280;39936;51.058;17.220;2023-02-23T01:15:53;101786.70;;;-0.17;100.00
54022;BME280;39936;51.058;17.220;2023-02-23T01:19:39;101785.05;;;-0.20;100.00
54022;BME280;39936;51.058;17.220;2023-02-23T01:23:21;101788.28;;;-0.22;100.00
54022;BME280;39936;51.058;17.220;2023-02-23T01:27:17;101788.19;;;-0.24;100.00
54022;BME280;39936;51.058;17.220;2023-02-23T01:30:38;101781.66;;;-0.27;100.00
54022;BME280;39936;51.058;17.220;2023-02-23T01:34:22;101781.37;;;-0.29;100.00
54022;BME280;39936;51.058;17.220;2023-02-23T01:38:19;101777.53;;;-0.33;100.00
54022;BME280;39936;51.058;17.220;2023-02-23T01:42:36;101777.35;;;-0.36;100.00
54022;BME280;39936;51.058;17.220;2023-02-23T01:46:45;101771.06;;;-0.39;100.00
54022;BME280;39936;51.058;17.220;2023-02-23T01:50:16;101767.72;;;-0.42;100.00
54022;BME280;39936;51.058;17.220;2023-02-23T01:57:46;101762.81;;;-0.51;100.00
54022;BME280;39936;51.058;17.220;2023-02-23T02:01:17;101760.62;;;-0.52;100.00
54022;BME280;39936;51.058;17.220;2023-02-23T02:05:08;101757.97;;;-0.56;100.00
54022;BME280;39936;51.058;17.220;2023-02-23T02:09:03;101755.35;;;-0.60;100.00
54022;BME280;39936;51.058;17.220;2023-02-23T02:13:01;101751.05;;;-0.65;100.00
54022;BME280;39936;51.058;17.220;2023-02-23T02:39:57;101731.70;;;-0.87;100.00
54022;BME280;39936;51.058;17.220;2023-02-23T02:55:40;101740.28;;;-0.91;100.00
54022;BME280;39936;51.058;17.220;2023-02-23T02:59:22;101742.13;;;-0.89;100.00
54022;BME280;39936;51.058;17.220;2023-02-23T03:07:35;101713.84;;;-1.05;100.00
54022;BME280;39936;51.058;17.220;2023-02-23T03:11:17;101741.66;;;-0.92;100.00
54022;BME280;39936;51.058;17.220;2023-02-23T03:19:56;101719.81;;;-1.02;100.00
54022;BME280;39936;51.058;17.220;2023-02-23T03:28:24;101739.88;;;-0.91;100.00
54022;BME280;39936;51.058;17.220;2023-02-23T03:32:46;101737.36;;;-0.92;100.00
54022;BME280;39936;51.058;17.220;2023-02-23T03:36:42;101740.74;;;-0.92;100.00
54022;BME280;39936;51.058;17.220;2023-02-23T03:40:26;101738.72;;;-0.92;100.00
54022;BME280;39936;51.058;17.220;2023-02-23T03:44:54;101734.60;;;-0.92;100.00
54022;BME280;39936;51.058;17.220;2023-02-23T03:49:23;101728.36;;;-0.94;100.00
54022;BME280;39936;51.058;17.220;2023-02-23T03:57:35;101732.15;;;-0.86;100.00
54022;BME280;39936;51.058;17.220;2023-02-23T04:01:26;101732.50;;;-0.81;100.00
54022;BME280;39936;51.058;17.220;2023-02-23T04:09:25;101727.16;;;-0.74;100.00
54022;BME280;39936;51.058;17.220;2023-02-23T04:13:27;101690.02;;;-0.88;100.00
54022;BME280;39936;51.058;17.220;2023-02-23T04:17:03;101721.15;;;-0.68;100.00
54022;BME280;39936;51.058;17.220;2023-02-23T04:20:42;101724.78;;;-0.69;100.00
54022;BME280;39936;51.058;17.220;2023-02-23T04:24:46;101702.35;;;-0.83;100.00
54022;BME280;39936;51.058;17.220;2023-02-23T04:28:42;101729.77;;;-0.70;100.00
54022;BME280;39936;51.058;17.220;2023-02-23T04:32:37;101731.22;;;-0.69;100.00
54022;BME280;39936;51.058;17.220;2023-02-23T04:36:04;101727.37;;;-0.72;100.00
54022;BME280;39936;51.058;17.220;2023-02-23T04:39:29;101733.38;;;-0.70;100.00
54022;BME280;39936;51.058;17.220;2023-02-23T04:43:16;101712.13;;;-0.85;100.00
54022;BME280;39936;51.058;17.220;2023-02-23T04:46:39;101729.59;;;-0.75;100.00
54022;BME280;39936;51.058;17.220;2023-02-23T04:50:13;101728.85;;;-0.78;100.00
54022;BME280;39936;51.058;17.220;2023-02-23T04:53:31;101729.60;;;-0.80;100.00
54022;BME280;39936;51.058;17.220;2023-02-23T04:57:03;101728.98;;;-0.80;100.00
54022;BME280;39936;51.058;17.220;2023-02-23T05:00:28;101722.91;;;-0.81;100.00
54022;BME280;39936;51.058;17.220;2023-02-23T05:04:28;101717.40;;;-0.86;100.00
54022;BME280;39936;51.058;17.220;2023-02-23T05:08:12;101720.11;;;-0.85;100.00
54022;BME280;39936;51.058;17.220;2023-02-23T05:12:02;101714.84;;;-0.86;100.00
54022;BME280;39936;51.058;17.220;2023-02-23T05:15:22;101711.73;;;-0.85;100.00
54022;BME280;39936;51.058;17.220;2023-02-23T05:18:43;101712.95;;;-0.83;100.00
54022;BME280;39936;51.058;17.220;2023-02-23T05:26:11;101708.09;;;-0.83;100.00
54022;BME280;39936;51.058;17.220;2023-02-23T05:29:33;101694.66;;;-0.90;100.00
54022;BME280;39936;51.058;17.220;2023-02-23T05:33:37;101704.83;;;-0.80;100.00
54022;BME280;39936;51.058;17.220;2023-02-23T05:37:25;101696.59;;;-0.81;100.00
54022;BME280;39936;51.058;17.220;2023-02-23T05:40:49;101702.37;;;-0.78;100.00
54022;BME280;39936;51.058;17.220;2023-02-23T05:44:38;101692.84;;;-0.83;100.00
54022;BME280;39936;51.058;17.220;2023-02-23T05:48:01;101698.49;;;-0.78;100.00
54022;BME280;39936;51.058;17.220;2023-02-23T05:51:44;101690.95;;;-0.76;100.00
54022;BME280;39936;51.058;17.220;2023-02-23T05:59:34;101703.14;;;-0.57;100.00
54022;BME280;39936;51.058;17.220;2023-02-23T06:03:04;101705.89;;;-0.47;100.00
54022;BME280;39936;51.058;17.220;2023-02-23T06:06:47;101703.91;;;-0.46;100.00
54022;BME280;39936;51.058;17.220;2023-02-23T06:10:09;101686.08;;;-0.45;100.00
54022;BME280;39936;51.058;17.220;2023-02-23T06:14:10;101706.79;;;-0.27;100.00
54022;BME280;39936;51.058;17.220;2023-02-23T06:17:35;101706.42;;;-0.29;100.00
54022;BME280;39936;51.058;17.220;2023-02-23T06:21:27;101711.71;;;-0.24;100.00
54022;BME280;39936;51.058;17.220;2023-02-23T06:25:27;101702.08;;;-0.21;100.00
54022;BME280;39936;51.058;17.220;2023-02-23T06:29:36;101712.05;;;-0.15;100.00
54022;BME280;39936;51.058;17.220;2023-02-23T06:33:36;101711.70;;;-0.10;100.00
54022;BME280;39936;51.058;17.220;2023-02-23T06:37:37;101710.31;;;0.03;100.00
54022;BME280;39936;51.058;17.220;2023-02-23T06:41:25;101703.42;;;0.03;100.00
54022;BME280;39936;51.058;17.220;2023-02-23T06:44:46;101708.59;;;0.21;100.00
54022;BME280;39936;51.058;17.220;2023-02-23T06:48:09;101704.84;;;0.25;100.00
54022;BME280;39936;51.058;17.220;2023-02-23T06:51:29;101702.27;;;0.36;100.00
54022;BME280;39936;51.058;17.220;2023-02-23T06:58:53;101660.89;;;0.32;100.00
54022;BME280;39936;51.058;17.220;2023-02-23T07:02:50;101695.13;;;0.58;100.00
54022;BME280;39936;51.058;17.220;2023-02-23T07:06:35;101695.53;;;0.59;100.00
54022;BME280;39936;51.058;17.220;2023-02-23T07:10:07;101691.57;;;0.70;100.00
54022;BME280;39936;51.058;17.220;2023-02-23T07:14:04;101696.72;;;0.75;100.00
54022;BME280;39936;51.058;17.220;2023-02-23T07:17:21;101695.47;;;0.81;100.00
54022;BME280;39936;51.058;17.220;2023-02-23T07:20:41;101693.55;;;0.91;100.00
54022;BME280;39936;51.058;17.220;2023-02-23T07:24:33;101693.51;;;0.95;100.00
54022;BME280;39936;51.058;17.220;2023-02-23T07:28:24;101695.91;;;1.04;100.00
54022;BME280;39936;51.058;17.220;2023-02-23T07:31:51;101692.27;;;1.09;100.00
54022;BME280;39936;51.058;17.220;2023-02-23T07:35:37;101688.59;;;1.11;100.00
54022;BME280;39936;51.058;17.220;2023-02-23T07:38:59;101690.16;;;1.21;100.00
54022;BME280;39936;51.058;17.220;2023-02-23T07:42:27;101695.63;;;1.22;100.00
54022;BME280;39936;51.058;17.220;2023-02-23T07:46:11;101695.17;;;1.24;100.00
54022;BME280;39936;51.058;17.220;2023-02-23T07:49:37;101693.66;;;1.40;100.00
54022;BME280;39936;51.058;17.220;2023-02-23T07:52:56;101691.45;;;1.38;100.00
54022;BME280;39936;51.058;17.220;2023-02-23T07:56:22;101683.75;;;1.42;100.00
54022;BME280;39936;51.058;17.220;2023-02-23T07:59:35;101665.66;;;1.35;100.00
54022;BME280;39936;51.058;17.220;2023-02-23T08:03:01;101681.21;;;1.56;100.00
54022;BME280;39936;51.058;17.220;2023-02-23T08:06:39;101654.59;;;1.34;100.00
54022;BME280;39936;51.058;17.220;2023-02-23T08:09:58;101669.46;;;1.56;100.00
54022;BME280;39936;51.058;17.220;2023-02-23T08:13:43;101671.20;;;1.66;100.00
54022;BME280;39936;51.058;17.220;2023-02-23T08:17:07;101670.87;;;1.78;100.00
54022;BME280;39936;51.058;17.220;2023-02-23T08:21:05;101638.39;;;1.71;100.00
54022;BME280;39936;51.058;17.220;2023-02-23T08:24:56;101669.79;;;1.98;99.98
54022;BME280;39936;51.058;17.220;2023-02-23T08:28:41;101647.67;;;1.95;99.29
54022;BME280;39936;51.058;17.220;2023-02-23T08:32:29;101663.36;;;2.20;99.33
54022;BME280;39936;51.058;17.220;2023-02-23T08:35:50;101662.93;;;2.52;99.31
54022;BME280;39936;51.058;17.220;2023-02-23T08:39:59;101660.36;;;2.87;99.18
54022;BME280;39936;51.058;17.220;2023-02-23T08:43:41;101658.95;;;2.89;94.97
54022;BME280;39936;51.058;17.220;2023-02-23T08:46:58;101623.52;;;2.63;94.63
54022;BME280;39936;51.058;17.220;2023-02-23T08:50:57;101652.10;;;2.98;93.46
54022;BME280;39936;51.058;17.220;2023-02-23T08:54:22;101637.77;;;3.05;94.04
54022;BME280;39936;51.058;17.220;2023-02-23T08:58:23;101619.59;;;3.14;93.21
54022;BME280;39936;51.058;17.220;2023-02-23T09:01:48;101647.66;;;3.41;92.31
54022;BME280;39936;51.058;17.220;2023-02-23T09:05:10;101612.00;;;3.44;91.56
54022;BME280;39936;51.058;17.220;2023-02-23T09:08:36;101639.34;;;3.41;91.12
54022;BME280;39936;51.058;17.220;2023-02-23T09:12:44;101637.50;;;3.72;92.36
54022;BME280;39936;51.058;17.220;2023-02-23T09:16:37;101632.45;;;4.15;91.02
54022;BME280;39936;51.058;17.220;2023-02-23T09:20:24;101626.51;;;4.52;90.50
54022;BME280;39936;51.058;17.220;2023-02-23T09:24:21;101620.15;;;4.63;88.02
54022;BME280;39936;51.058;17.220;2023-02-23T09:28:05;101615.64;;;5.04;88.62
54022;BME280;39936;51.058;17.220;2023-02-23T09:31:58;101612.43;;;5.43;87.30
54022;BME280;39936;51.058;17.220;2023-02-23T09:35:45;101605.70;;;5.54;85.05
54022;BME280;39936;51.058;17.220;2023-02-23T09:39:07;101583.19;;;5.45;84.52
54022;BME280;39936;51.058;17.220;2023-02-23T09:49:41;101592.29;;;5.68;82.94
54022;BME280;39936;51.058;17.220;2023-02-23T09:57:43;101595.03;;;5.95;81.08
54022;BME280;39936;51.058;17.220;2023-02-23T10:04:50;101596.10;;;5.79;81.01
54022;BME280;39936;51.058;17.220;2023-02-23T10:08:54;101592.40;;;5.77;82.01
54022;BME280;39936;51.058;17.220;2023-02-23T10:25:05;101576.75;;;5.89;83.35
54022;BME280;39936;51.058;17.220;2023-02-23T10:28:35;101573.63;;;6.01;81.65
54022;BME280;39936;51.058;17.220;2023-02-23T10:32:04;101569.10;;;6.09;81.24
54022;BME280;39936;51.058;17.220;2023-02-23T10:39:58;101557.50;;;6.60;80.56
54022;BME280;39936;51.058;17.220;2023-02-23T10:43:26;101555.51;;;6.66;78.99
54022;BME280;39936;51.058;17.220;2023-02-23T10:47:06;101551.74;;;6.46;79.17
54022;BME280;39936;51.058;17.220;2023-02-23T10:50:40;101544.27;;;6.72;80.21
54022;BME280;39936;51.058;17.220;2023-02-23T10:58:02;101538.77;;;6.15;80.76
54022;BME280;39936;51.058;17.220;2023-02-23T11:01:36;101533.65;;;6.18;81.00
54022;BME280;39936;51.058;17.220;2023-02-23T11:08:46;101505.87;;;6.43;80.13
54022;BME280;39936;51.058;17.220;2023-02-23T11:12:18;101519.58;;;6.36;79.49
54022;BME280;39936;51.058;17.220;2023-02-23T11:16:10;101518.81;;;6.33;80.27
54022;BME280;39936;51.058;17.220;2023-02-23T11:19:48;101523.13;;;6.47;81.27
54022;BME280;39936;51.058;17.220;2023-02-23T11:23:34;101508.98;;;6.58;80.35
54022;BME280;39936;51.058;17.220;2023-02-23T11:28:00;101503.05;;;6.58;80.84
54022;BME280;39936;51.058;17.220;2023-02-23T11:31:34;101487.90;;;6.72;81.06
54022;BME280;39936;51.058;17.220;2023-02-23T11:35:34;101476.33;;;7.18;81.45
54022;BME280;39936;51.058;17.220;2023-02-23T11:39:20;101457.14;;;7.29;80.24
54022;BME280;39936;51.058;17.220;2023-02-23T11:42:52;101468.47;;;7.66;77.04
54022;BME280;39936;51.058;17.220;2023-02-23T11:46:20;101458.11;;;7.81;78.70
54022;BME280;39936;51.058;17.220;2023-02-23T11:50:26;101457.43;;;8.22;77.90
54022;BME280;39936;51.058;17.220;2023-02-23T11:54:32;101422.09;;;8.42;75.83
54022;BME280;39936;51.058;17.220;2023-02-23T12:05:48;101409.88;;;8.63;73.99
54022;BME280;39936;51.058;17.220;2023-02-23T12:09:37;101422.70;;;9.18;75.51
54022;BME280;39936;51.058;17.220;2023-02-23T12:16:40;101420.18;;;9.69;73.09
54022;BME280;39936;51.058;17.220;2023-02-23T12:20:29;101417.87;;;9.62;72.08
54022;BME280;39936;51.058;17.220;2023-02-23T12:24:27;101419.33;;;9.56;71.02
54022;BME280;39936;51.058;17.220;2023-02-23T12:28:35;101410.68;;;9.59;73.12
54022;BME280;39936;51.058;17.220;2023-02-23T12:40:38;101389.63;;;9.74;71.08
54022;BME280;39936;51.058;17.220;2023-02-23T12:52:26;101383.14;;;9.94;72.44
54022;BME280;39936;51.058;17.220;2023-02-23T12:59:46;101369.65;;;10.13;70.93
54022;BME280;39936;51.058;17.220;2023-02-23T13:11:15;101356.05;;;10.23;72.71
54022;BME280;39936;51.058;17.220;2023-02-23T13:18:58;101353.09;;;10.25;71.57
54022;BME280;39936;51.058;17.220;2023-02-23T13:29:58;101324.41;;;10.30;70.98
54022;BME280;39936;51.058;17.220;2023-02-23T13:34:08;101338.56;;;10.21;71.26
54022;BME280;39936;51.058;17.220;2023-02-23T13:37:40;101336.01;;;10.28;72.04
54022;BME280;39936;51.058;17.220;2023-02-23T13:45:40;101326.70;;;10.67;72.42
54022;BME280;39936;51.058;17.220;2023-02-23T13:53:35;101310.24;;;11.01;70.82
54022;BME280;39936;51.058;17.220;2023-02-23T13:57:43;101318.73;;;11.11;70.63
54022;BME280;39936;51.058;17.220;2023-02-23T14:04:36;101321.36;;;11.01;68.66
54022;BME280;39936;51.058;17.220;2023-02-23T14:11:57;101311.61;;;10.69;69.83
54022;BME280;39936;51.058;17.220;2023-02-23T14:15:43;101317.42;;;10.86;70.14
54022;BME280;39936;51.058;17.220;2023-02-23T14:19:37;101291.84;;;10.88;70.26
54022;BME280;39936;51.058;17.220;2023-02-23T14:26:40;101310.88;;;10.96;67.55
54022;BME280;39936;51.058;17.220;2023-02-23T14:30:12;101306.75;;;10.86;69.23
54022;BME280;39936;51.058;17.220;2023-02-23T14:37:39;101297.70;;;10.73;68.38
54022;BME280;39936;51.058;17.220;2023-02-23T14:41:09;101299.94;;;10.74;70.16
54022;BME280;39936;51.058;17.220;2023-02-23T14:44:35;101292.10;;;10.76;70.17
54022;BME280;39936;51.058;17.220;2023-02-23T14:48:14;101290.77;;;10.67;69.57
54022;BME280;39936;51.058;17.220;2023-02-23T14:51:45;101298.77;;;10.46;70.19
54022;BME280;39936;51.058;17.220;2023-02-23T14:59:20;101295.45;;;10.51;70.99
54022;BME280;39936;51.058;17.220;2023-02-23T15:02:52;101296.14;;;10.63;70.62
54022;BME280;39936;51.058;17.220;2023-02-23T15:10:28;101285.91;;;10.59;70.39
54022;BME280;39936;51.058;17.220;2023-02-23T15:14:00;101282.12;;;10.49;70.46
54022;BME280;39936;51.058;17.220;2023-02-23T15:17:25;101245.54;;;10.19;71.01
54022;BME280;39936;51.058;17.220;2023-02-23T15:20:50;101275.02;;;10.28;71.29
54022;BME280;39936;51.058;17.220;2023-02-23T15:24:15;101273.66;;;10.29;71.84
54022;BME280;39936;51.058;17.220;2023-02-23T15:28:09;101273.94;;;10.27;72.11
54022;BME280;39936;51.058;17.220;2023-02-23T15:31:41;101273.73;;;10.17;72.52
54022;BME280;39936;51.058;17.220;2023-02-23T15:35:15;101267.00;;;10.06;72.86
54022;BME280;39936;51.058;17.220;2023-02-23T15:39:40;101264.14;;;9.95;73.25
54022;BME280;39936;51.058;17.220;2023-02-23T15:43:12;101230.91;;;9.60;73.69
54022;BME280;39936;51.058;17.220;2023-02-23T15:46:33;101230.81;;;9.55;74.13
54022;BME280;39936;51.058;17.220;2023-02-23T15:50:45;101261.14;;;9.67;74.44
54022;BME280;39936;51.058;17.220;2023-02-23T15:55:03;101259.26;;;9.53;74.89
54022;BME280;39936;51.058;17.220;2023-02-23T15:59:10;101254.08;;;9.32;75.30
54022;BME280;39936;51.058;17.220;2023-02-23T16:03:07;101259.98;;;9.19;76.12
54022;BME280;39936;51.058;17.220;2023-02-23T16:14:51;101234.38;;;8.56;77.73
54022;BME280;39936;51.058;17.220;2023-02-23T16:19:03;101257.91;;;8.61;77.91
54022;BME280;39936;51.058;17.220;2023-02-23T16:22:27;101253.73;;;8.49;78.30
54022;BME280;39936;51.058;17.220;2023-02-23T16:27:04;101245.24;;;8.38;78.42
54022;BME280;39936;51.058;17.220;2023-02-23T16:30:35;101250.05;;;8.37;78.63
54022;BME280;39936;51.058;17.220;2023-02-23T16:34:27;101254.94;;;8.28;79.05
54022;BME280;39936;51.058;17.220;2023-02-23T16:38:01;101249.70;;;8.17;79.47
54022;BME280;39936;51.058;17.220;2023-02-23T16:45:49;101232.62;;;7.71;81.07
54022;BME280;39936;51.058;17.220;2023-02-23T16:49:55;101238.95;;;7.56;82.41
54022;BME280;39936;51.058;17.220;2023-02-23T16:53:33;101258.24;;;7.65;82.44
54022;BME280;39936;51.058;17.220;2023-02-23T16:57:29;101246.09;;;7.58;82.44
54022;BME280;39936;51.058;17.220;2023-02-23T17:00:52;101234.37;;;7.51;82.42
54022;BME280;39936;51.058;17.220;2023-02-23T17:04:35;101257.04;;;7.61;82.59
54022;BME280;39936;51.058;17.220;2023-02-23T17:08:01;101254.88;;;7.51;82.83
54022;BME280;39936;51.058;17.220;2023-02-23T17:12:28;101254.69;;;7.42;83.16
54022;BME280;39936;51.058;17.220;2023-02-23T17:16:34;101255.88;;;7.28;83.97
54022;BME280;39936;51.058;17.220;2023-02-23T17:20:27;101257.76;;;7.20;84.75
54022;BME280;39936;51.058;17.220;2023-02-23T17:24:08;101260.45;;;7.16;85.18
54022;BME280;39936;51.058;17.220;2023-02-23T17:27:52;101264.59;;;7.13;85.81
54022;BME280;39936;51.058;17.220;2023-02-23T17:31:16;101263.05;;;7.08;86.37
54022;BME280;39936;51.058;17.220;2023-02-23T17:34:50;101259.32;;;7.02;86.87
54022;BME280;39936;51.058;17.220;2023-02-23T17:38:28;101257.12;;;6.99;87.39
54022;BME280;39936;51.058;17.220;2023-02-23T17:42:11;101253.59;;;6.95;87.73
54022;BME280;39936;51.058;17.220;2023-02-23T17:46:17;101251.63;;;6.91;88.16
54022;BME280;39936;51.058;17.220;2023-02-23T17:49:35;101249.13;;;6.87;89.89
54022;BME280;39936;51.058;17.220;2023-02-23T17:52:57;101247.53;;;6.77;90.33
54022;BME280;39936;51.058;17.220;2023-02-23T17:57:01;101240.57;;;6.74;91.31
54022;BME280;39936;51.058;17.220;2023-02-23T18:00:54;101240.37;;;6.50;95.76
54022;BME280;39936;51.058;17.220;2023-02-23T18:04:41;101238.34;;;6.39;98.81
54022;BME280;39936;51.058;17.220;2023-02-23T18:08:23;101241.84;;;6.32;100.00
54022;BME280;39936;51.058;17.220;2023-02-23T18:12:20;101237.89;;;6.28;100.00
54022;BME280;39936;51.058;17.220;2023-02-23T18:15:54;101233.42;;;6.30;100.00
54022;BME280;39936;51.058;17.220;2023-02-23T18:19:49;101228.66;;;6.30;100.00
54022;BME280;39936;51.058;17.220;2023-02-23T18:24:13;101213.96;;;6.14;100.00
54022;BME280;39936;51.058;17.220;2023-02-23T18:31:57;101224.57;;;6.27;100.00
54022;BME280;39936;51.058;17.220;2023-02-23T18:35:40;101226.15;;;6.35;100.00
54022;BME280;39936;51.058;17.220;2023-02-23T18:39:31;101225.83;;;6.30;100.00
54022;BME280;39936;51.058;17.220;2023-02-23T18:43:06;101225.66;;;6.29;100.00
54022;BME280;39936;51.058;17.220;2023-02-23T18:46:53;101224.85;;;6.26;100.00
54022;BME280;39936;51.058;17.220;2023-02-23T18:51:02;101218.09;;;6.27;100.00
54022;BME280;39936;51.058;17.220;2023-02-23T18:54:56;101216.53;;;6.31;100.00
54022;BME280;39936;51.058;17.220;2023-02-23T18:58:44;101209.63;;;6.31;100.00
54022;BME280;39936;51.058;17.220;2023-02-23T19:02:14;101216.80;;;6.39;100.00
54022;BME280;39936;51.058;17.220;2023-02-23T19:06:01;101210.85;;;6.42;100.00
54022;BME280;39936;51.058;17.220;2023-02-23T19:09:50;101210.47;;;6.50;100.00
54022;BME280;39936;51.058;17.220;2023-02-23T19:13:11;101181.70;;;6.35;100.00
54022;BME280;39936;51.058;17.220;2023-02-23T19:16:34;101209.59;;;6.57;100.00
54022;BME280;39936;51.058;17.220;2023-02-23T19:20:57;101205.90;;;6.59;100.00
54022;BME280;39936;51.058;17.220;2023-02-23T19:24:47;101206.36;;;6.66;100.00
54022;BME280;39936;51.058;17.220;2023-02-23T19:44:07;101196.07;;;6.90;100.00
54022;BME280;39936;51.058;17.220;2023-02-23T19:47:31;101195.50;;;6.95;100.00
54022;BME280;39936;51.058;17.220;2023-02-23T19:51:32;101175.77;;;6.86;100.00
54022;BME280;39936;51.058;17.220;2023-02-23T19:55:20;101188.52;;;7.06;100.00
54022;BME280;39936;51.058;17.220;2023-02-23T19:59:27;101186.52;;;7.08;100.00
54022;BME280;39936;51.058;17.220;2023-02-23T20:03:25;101189.28;;;7.09;100.00
54022;BME280;39936;51.058;17.220;2023-02-23T20:07:19;101187.98;;;7.09;99.80
54022;BME280;39936;51.058;17.220;2023-02-23T20:11:28;101189.95;;;7.08;99.57
54022;BME280;39936;51.058;17.220;2023-02-23T20:15:03;101163.45;;;6.83;99.75
54022;BME280;39936;51.058;17.220;2023-02-23T20:19:10;101188.62;;;6.91;99.98
54022;BME280;39936;51.058;17.220;2023-02-23T20:22:56;101171.55;;;6.79;100.00
54022;BME280;39936;51.058;17.220;2023-02-23T20:27:05;101183.99;;;6.82;100.00
54022;BME280;39936;51.058;17.220;2023-02-23T20:30:45;101184.13;;;6.84;100.00
54022;BME280;39936;51.058;17.220;2023-02-23T20:34:22;101180.00;;;6.87;100.00
54022;BME280;39936;51.058;17.220;2023-02-23T20:38:12;101178.09;;;6.86;100.00
54022;BME280;39936;51.058;17.220;2023-02-23T20:42:30;101176.09;;;6.90;100.00
54022;BME280;39936;51.058;17.220;2023-02-23T20:47:04;101171.58;;;6.99;100.00
54022;BME280;39936;51.058;17.220;2023-02-23T20:50:33;101165.81;;;7.00;100.00
54022;BME280;39936;51.058;17.220;2023-02-23T20:54:42;101163.85;;;7.03;100.00
54022;BME280;39936;51.058;17.220;2023-02-23T20:58:42;101161.38;;;7.05;100.00
54022;BME280;39936;51.058;17.220;2023-02-23T21:02:27;101159.91;;;7.11;100.00
54022;BME280;39936;51.058;17.220;2023-02-23T21:05:55;101157.22;;;7.08;100.00
54022;BME280;39936;51.058;17.220;2023-02-23T21:10:09;101158.55;;;7.08;100.00
54022;BME280;39936;51.058;17.220;2023-02-23T21:14:10;101117.52;;;6.84;100.00
54022;BME280;39936;51.058;17.220;2023-02-23T21:17:55;101147.37;;;7.05;100.00
54022;BME280;39936;51.058;17.220;2023-02-23T21:21:21;101145.27;;;7.09;100.00
54022;BME280;39936;51.058;17.220;2023-02-23T21:25:10;101143.93;;;7.08;100.00
54022;BME280;39936;51.058;17.220;2023-02-23T21:28:41;101140.85;;;7.08;100.00
54022;BME280;39936;51.058;17.220;2023-02-23T21:32:18;101135.52;;;7.06;100.00
54022;BME280;39936;51.058;17.220;2023-02-23T21:35:59;101136.75;;;7.06;100.00
54022;BME280;39936;51.058;17.220;2023-02-23T21:39:48;101135.19;;;7.12;100.00
54022;BME280;39936;51.058;17.220;2023-02-23T21:43:19;101136.22;;;7.16;100.00
54022;BME280;39936;51.058;17.220;2023-02-23T21:47:52;101126.52;;;7.19;100.00
54022;BME280;39936;51.058;17.220;2023-02-23T21:51:46;101119.58;;;7.17;100.00
54022;BME280;39936;51.058;17.220;2023-02-23T21:55:44;101121.31;;;7.22;100.00
54022;BME280;39936;51.058;17.220;2023-02-23T21:59:33;101114.80;;;7.28;100.00
54022;BME280;39936;51.058;17.220;2023-02-23T22:07:31;101111.75;;;7.28;99.77
54022;BME280;39936;51.058;17.220;2023-02-23T22:11:45;101106.77;;;7.23;99.83
54022;BME280;39936;51.058;17.220;2023-02-23T22:15:35;101107.68;;;7.07;100.00
54022;BME280;39936;51.058;17.220;2023-02-23T22:19:29;101076.16;;;6.94;100.00
54022;BME280;39936;51.058;17.220;2023-02-23T22:22:56;101100.83;;;7.10;100.00
54022;BME280;39936;51.058;17.220;2023-02-23T22:27:11;101097.98;;;7.10;100.00
54022;BME280;39936;51.058;17.220;2023-02-23T22:31:09;101094.16;;;7.17;100.00
54022;BME280;39936;51.058;17.220;2023-02-23T22:34:31;101085.91;;;7.15;100.00
54022;BME280;39936;51.058;17.220;2023-02-23T22:37:56;101085.86;;;7.17;100.00
54022;BME280;39936;51.058;17.220;2023-02-23T22:42:03;101083.80;;;7.18;100.00
54022;BME280;39936;51.058;17.220;2023-02-23T22:45:36;101077.15;;;7.02;100.00
54022;BME280;39936;51.058;17.220;2023-02-23T22:49:48;101070.54;;;6.99;100.00
54022;BME280;39936;51.058;17.220;2023-02-23T22:53:12;101070.73;;;7.03;100.00
54022;BME280;39936;51.058;17.220;2023-02-23T22:57:00;101074.45;;;7.03;100.00
54022;BME280;39936;51.058;17.220;2023-02-23T23:00:52;101072.30;;;7.05;100.00
54022;BME280;39936;51.058;17.220;2023-02-23T23:04:35;101046.71;;;6.90;100.00
54022;BME280;39936;51.058;17.220;2023-02-23T23:08:44;101064.20;;;7.01;100.00
54022;BME280;39936;51.058;17.220;2023-02-23T23:12:33;101056.84;;;7.04;100.00
54022;BME280;39936;51.058;17.220;2023-02-23T23:16:03;101059.48;;;7.15;100.00